Time;durP1;ratioP1;P1;durP2;ratioP2;P2;SDS_P1;SDS_P2;PMS_P1;PMS_P2;Temp;Humidity;BMP_temperature;BMP_pressure;BME280_temperature;BME280_humidity;BME280_pressure;Samples;Min_cycle;Max_cycle;Signal;HPM_P1;HPM_P2
2023/12/21 09:21:11;;;;;;;18.08;3.72;;;10.00;99.90;;;;;;5193021;22;20117;-77
2023/12/21 09:23:37;;;;;;;7.47;1.55;;;10.10;99.90;;;;;;5043395;28;20498;-78
2023/12/21 09:26:03;;;;;;;8.15;1.45;;;10.10;99.90;;;;;;5064885;28;20125;-78
2023/12/21 09:28:29;;;;;;;3.92;1.10;;;10.00;99.90;;;;;;5031112;28;20158;-78
2023/12/21 09:30:56;;;;;;;8.23;1.65;;;10.20;99.90;;;;;;5053578;28;20508;-78
2023/12/21 09:33:22;;;;;;;17.60;2.58;;;10.10;99.90;;;;;;5065343;28;20052;-78
2023/12/21 09:35:54;;;;;;;14.00;2.55;;;10.10;99.90;;;;;;5030265;28;20117;-77
2023/12/21 09:38:20;;;;;;;11.88;2.88;;;10.20;99.90;;;;;;5067833;28;20130;-78
2023/12/21 09:40:46;;;;;;;14.57;3.10;;;10.20;99.90;;;;;;5029463;28;20045;-77
2023/12/21 09:43:16;;;;;;;7.30;2.20;;;10.20;99.90;;;;;;5060217;28;20043;-78
2023/12/21 09:45:45;;;;;;;13.93;2.45;;;10.20;99.90;;;;;;5062362;28;20078;-77
2023/12/21 09:48:13;;;;;;;16.08;3.60;;;10.20;99.90;;;;;;5046693;28;20047;-77
2023/12/21 09:50:45;;;;;;;22.70;3.33;;;10.30;99.90;;;;;;5047534;28;20052;-77
2023/12/21 09:53:15;;;;;;;9.63;2.17;;;10.30;99.90;;;;;;5038234;28;20398;-77
2023/12/21 09:55:42;;;;;;;;;;;10.30;99.90;;;;;;5064896;28;20048;-78
2023/12/21 09:58:11;;;;;;;9.65;1.75;;;10.40;99.90;;;;;;5066542;28;20093;-77
2023/12/21 10:00:37;;;;;;;15.02;2.67;;;10.40;99.90;;;;;;5055526;28;20186;-78
2023/12/21 10:03:04;;;;;;;14.02;3.03;;;10.40;99.90;;;;;;5053974;28;20044;-77
2023/12/21 10:05:30;;;;;;;23.70;4.43;;;10.40;99.90;;;;;;5041146;28;20044;-77
2023/12/21 10:07:57;;;;;;;21.30;4.07;;;10.40;99.90;;;;;;5067977;28;20261;-78
2023/12/21 10:10:23;;;;;;;6.20;1.20;;;10.40;99.90;;;;;;5050528;28;20530;-78
2023/12/21 10:12:49;;;;;;;12.95;2.47;;;10.30;99.90;;;;;;5054542;28;20218;-77
2023/12/21 10:15:16;;;;;;;19.42;3.88;;;10.40;99.90;;;;;;5068353;28;20051;-76
2023/12/21 10:17:42;;;;;;;17.50;3.70;;;10.40;99.90;;;;;;5067483;28;20520;-76
2023/12/21 10:20:12;;;;;;;21.50;3.85;;;10.40;99.90;;;;;;5049677;28;20056;-76
2023/12/21 10:22:42;;;;;;;14.05;3.70;;;10.50;99.90;;;;;;5043864;28;20055;-77
2023/12/21 10:25:12;;;;;;;19.58;4.07;;;10.60;99.90;;;;;;5063219;28;20078;-76
2023/12/21 10:27:40;;;;;;;13.90;2.67;;;10.60;99.90;;;;;;5060543;28;20074;-76
2023/12/21 10:30:06;;;;;;;13.02;3.10;;;10.60;99.90;;;;;;5067940;28;20191;-76
2023/12/21 10:32:32;;;;;;;20.40;4.93;;;10.60;99.90;;;;;;5065181;28;20064;-75
2023/12/21 10:34:59;;;;;;;18.92;4.18;;;10.60;99.90;;;;;;5064504;28;20101;-75
2023/12/21 10:37:26;;;;;;;21.85;4.32;;;10.60;99.90;;;;;;5067235;28;20044;-75
2023/12/21 10:39:53;;;;;;;24.67;5.82;;;10.60;99.90;;;;;;5052877;28;20048;-75
2023/12/21 10:42:21;;;;;;;20.98;4.30;;;10.70;99.90;;;;;;5043133;28;20136;-75
2023/12/21 10:44:50;;;;;;;18.60;4.65;;;10.70;99.90;;;;;;5064352;28;20267;-75
2023/12/21 10:47:16;;;;;;;23.52;4.72;;;10.70;99.90;;;;;;5059744;28;20080;-75
2023/12/21 10:49:43;;;;;;;16.40;4.38;;;10.70;99.90;;;;;;5066391;28;20053;-76
2023/12/21 10:52:13;;;;;;;24.23;4.32;;;10.60;99.90;;;;;;5066935;28;20524;-75
2023/12/21 10:54:42;;;;;;;15.20;4.25;;;10.60;99.90;;;;;;5066565;28;20514;-77
2023/12/21 10:57:09;;;;;;;20.13;5.15;;;10.50;99.90;;;;;;5049887;28;20050;-77
2023/12/21 10:59:35;;;;;;;28.63;5.80;;;10.50;99.90;;;;;;5070473;28;20447;-78
2023/12/21 11:02:03;;;;;;;28.98;5.25;;;10.50;99.90;;;;;;5061830;28;20052;-80
2023/12/21 11:04:30;;;;;;;25.77;4.88;;;10.40;99.90;;;;;;5039371;28;20114;-79
2023/12/21 11:06:57;;;;;;;27.00;5.75;;;10.40;99.90;;;;;;5063483;28;20532;-77
2023/12/21 11:09:25;;;;;;;27.33;6.50;;;10.30;99.90;;;;;;5066846;28;20128;-78
2023/12/21 11:11:57;;;;;;;38.10;7.45;;;10.30;99.90;;;;;;5068457;28;20119;-77
2023/12/21 11:14:23;;;;;;;29.38;6.30;;;10.40;99.90;;;;;;5068267;28;20056;-78
2023/12/21 11:16:57;;;;;;;24.58;4.78;;;10.50;99.90;;;;;;5047590;28;20052;-77
2023/12/21 11:19:35;;;;;;;31.50;6.13;;;10.50;99.90;;;;;;5065911;28;20035;-78
2023/12/21 11:22:03;;;;;;;20.08;4.95;;;10.60;99.90;;;;;;5084802;28;20579;-78
2023/12/21 11:24:29;;;;;;;32.72;5.45;;;10.70;99.90;;;;;;5064730;28;20044;-78
2023/12/21 11:26:56;;;;;;;25.58;5.28;;;10.80;99.90;;;;;;5062850;28;20098;-77
2023/12/21 11:29:27;;;;;;;32.03;5.53;;;10.90;99.90;;;;;;5061771;28;20493;-76
2023/12/21 11:31:54;;;;;;;32.55;6.80;;;10.90;99.90;;;;;;5081283;28;20040;-75
2023/12/21 11:34:38;;;;;;;24.90;5.93;;;10.90;99.90;;;;;;5085079;28;20121;-75
2023/12/21 11:37:16;;;;;;;36.70;5.30;;;10.80;99.90;;;;;;5049162;28;20036;-76
2023/12/21 11:39:43;;;;;;;18.33;3.60;;;10.80;99.90;;;;;;5065302;28;20056;-75
2023/12/21 11:42:09;;;;;;;30.38;4.82;;;10.70;99.90;;;;;;5048177;28;20101;-76
2023/12/21 11:44:36;;;;;;;18.38;3.45;;;10.80;99.90;;;;;;5050632;28;20051;-75
2023/12/21 11:47:05;;;;;;;27.48;5.55;;;10.90;99.90;;;;;;5068135;28;20390;-75
2023/12/21 11:49:31;;;;;;;33.78;5.93;;;10.90;99.90;;;;;;5064487;28;20097;-75
2023/12/21 11:51:56;;;;;;;27.35;5.45;;;10.90;99.90;;;;;;5033138;28;20043;-74
2023/12/21 11:54:23;;;;;;;25.00;5.53;;;10.90;99.90;;;;;;5064352;28;20595;-76
2023/12/21 11:56:55;;;;;;;23.55;5.65;;;10.90;99.90;;;;;;5064251;28;20043;-75
2023/12/21 11:59:27;;;;;;;29.23;5.82;;;11.00;99.90;;;;;;5047286;28;20120;-74
2023/12/21 12:01:53;;;;;;;25.35;5.32;;;11.00;99.90;;;;;;5064695;28;20402;-75
2023/12/21 12:04:19;;;;;;;20.40;5.57;;;11.00;99.90;;;;;;5061188;28;20055;-75
2023/12/21 12:06:49;;;;;;;19.73;4.93;;;11.00;99.90;;;;;;5065206;28;20552;-75
2023/12/21 12:09:17;;;;;;;25.02;5.30;;;11.10;99.90;;;;;;5069580;28;20485;-75
2023/12/21 12:11:43;;;;;;;28.42;5.60;;;11.00;99.90;;;;;;5047671;28;20130;-75
2023/12/21 12:14:09;;;;;;;24.27;5.75;;;11.00;99.90;;;;;;5011164;28;20120;-75
2023/12/21 12:16:36;;;;;;;27.25;6.40;;;11.10;99.90;;;;;;5042712;28;20040;-74
2023/12/21 12:19:02;;;;;;;29.52;7.03;;;11.00;99.90;;;;;;5084795;28;20052;-75
2023/12/21 12:21:28;;;;;;;33.25;6.85;;;10.90;99.90;;;;;;5059466;28;20056;-75
2023/12/21 12:23:54;;;;;;;26.20;6.18;;;10.80;99.90;;;;;;5043152;28;20044;-76
2023/12/21 12:26:20;;;;;;;14.05;3.10;;;10.50;99.90;;;;;;5060050;28;20045;-79
2023/12/21 12:28:49;;;;;;;17.40;2.67;;;9.10;99.90;;;;;;5058609;28;20044;-82
2023/12/21 12:31:16;;;;;;;19.60;2.92;;;8.30;99.90;;;;;;5027228;28;20515;-80
2023/12/21 12:33:42;;;;;;;20.55;5.32;;;7.90;99.90;;;;;;5043076;28;20090;-79
2023/12/21 12:36:08;;;;;;;33.40;5.03;;;7.80;99.90;;;;;;5059920;28;20064;-79
2023/12/21 12:38:34;;;;;;;29.75;4.88;;;7.70;99.90;;;;;;5037328;28;20490;-80
2023/12/21 12:41:00;;;;;;;24.30;5.18;;;7.70;99.90;;;;;;5041695;28;20071;-79
2023/12/21 12:43:30;;;;;;;32.40;6.35;;;7.70;99.90;;;;;;5043039;28;20044;-79
2023/12/21 12:45:59;;;;;;;24.53;5.87;;;7.70;99.90;;;;;;5042977;28;20052;-78
2023/12/21 12:48:26;;;;;;;;;;;7.80;99.90;;;;;;5053745;28;20055;-79
2023/12/21 12:50:55;;;;;;;31.55;6.68;;;7.80;99.90;;;;;;5042628;28;19924;-78
2023/12/21 12:53:21;;;;;;;36.10;6.32;;;7.90;99.90;;;;;;5056444;28;20864;-78
2023/12/21 12:55:50;;;;;;;36.85;7.50;;;7.90;99.90;;;;;;5059558;28;20135;-78
2023/12/21 12:58:16;;;;;;;26.92;6.03;;;7.90;99.90;;;;;;5042197;28;20040;-78
2023/12/21 13:00:42;;;;;;;43.00;6.47;;;7.80;99.90;;;;;;5036080;28;20401;-78
2023/12/21 13:03:09;;;;;;;33.63;5.60;;;7.80;99.90;;;;;;5057267;28;20123;-78
2023/12/21 13:05:34;;;;;;;36.05;6.95;;;7.80;99.90;;;;;;5040850;28;20052;-77
2023/12/21 13:08:00;;;;;;;33.65;6.38;;;7.80;99.90;;;;;;5023557;28;20041;-78
2023/12/21 13:10:26;;;;;;;42.47;6.88;;;7.80;99.90;;;;;;5024997;28;20607;-78
2023/12/21 13:12:52;;;;;;;40.63;7.00;;;7.80;99.90;;;;;;5040801;28;20141;-79
2023/12/21 13:15:18;;;;;;;36.53;7.13;;;7.80;99.90;;;;;;5059169;28;20052;-81
2023/12/21 13:17:43;;;;;;;37.28;6.35;;;7.80;99.90;;;;;;5024325;28;20037;-79
2023/12/21 13:20:10;;;;;;;30.50;6.22;;;7.80;99.90;;;;;;5041174;28;20049;-80
2023/12/21 13:22:36;;;;;;;24.17;3.72;;;7.80;99.90;;;;;;5040933;28;20550;-79
2023/12/21 13:25:03;;;;;;;25.00;5.40;;;7.90;99.90;;;;;;5041615;28;20045;-79
2023/12/21 13:27:29;;;;;;;22.38;5.32;;;7.90;99.90;;;;;;5057361;28;20513;-80
2023/12/21 13:29:54;;;;;;;23.05;4.50;;;7.90;99.90;;;;;;5058055;28;20049;-79
2023/12/21 13:32:21;;;;;;;31.35;6.65;;;7.80;99.90;;;;;;5040476;28;20064;-78
2023/12/21 13:34:47;;;;;;;34.35;5.75;;;7.80;99.90;;;;;;5023902;28;20109;-78
2023/12/21 13:37:21;;;;;;;30.35;6.35;;;8.00;99.90;;;;;;5038841;28;20048;-77
2023/12/21 13:39:49;;;;;;;25.75;4.53;;;8.10;99.90;;;;;;5055879;28;20056;-77
2023/12/21 13:42:16;;;;;;;39.42;5.85;;;8.30;99.90;;;;;;5060549;28;20364;-77
2023/12/21 13:44:42;;;;;;;34.78;5.72;;;8.30;99.90;;;;;;5082439;23;20106;-77
2023/12/21 13:47:09;;;;;;;42.92;5.72;;;8.30;99.90;;;;;;5040911;28;20052;-76
2023/12/21 13:49:41;;;;;;;34.22;4.95;;;8.30;99.90;;;;;;5038848;28;20087;-76
2023/12/21 13:52:08;;;;;;;24.30;4.47;;;8.20;99.90;;;;;;5032579;23;20105;-77
2023/12/21 13:54:34;;;;;;;39.53;6.05;;;8.10;99.90;;;;;;5009412;28;20045;-76
2023/12/21 14:00:14;;;;;;;51.70;9.05;;;8.00;99.90;;;;;;5041647;22;20099;-77
2023/12/21 14:02:41;;;;;;;52.63;8.80;;;7.90;99.90;;;;;;5023259;28;20126;-78
2023/12/21 14:07:45;;;;;;;48.50;8.90;;;7.80;99.90;;;;;;5109683;23;20197;-81
2023/12/21 14:10:11;;;;;;;31.33;6.72;;;7.80;99.90;;;;;;5084243;27;20062;-79
2023/12/21 14:15:28;;;;;;;49.70;9.65;;;7.70;99.90;;;;;;5073778;22;20057;-79
2023/12/21 14:18:13;;;;;;;41.45;7.65;;;7.70;99.90;;;;;;5059473;28;20059;-79
2023/12/21 14:20:39;;;;;;;54.47;9.55;;;7.50;99.90;;;;;;5027804;28;20036;-77
2023/12/21 14:29:22;;;;;;;39.95;7.40;;;7.40;99.90;;;;;;3330036;26;20108;-76
2023/12/21 14:31:48;;;;;;;32.30;5.47;;;7.50;99.90;;;;;;5015087;28;20034;-76
2023/12/21 14:34:20;;;;;;;38.90;6.57;;;7.50;99.90;;;;;;5040074;23;20056;-76
2023/12/21 14:36:46;;;;;;;28.17;5.53;;;7.60;99.90;;;;;;5024936;28;20037;-77
2023/12/21 14:39:50;;;;;;;39.13;8.07;;;7.70;99.90;;;;;;5044526;28;20045;-76
2023/12/21 14:42:16;;;;;;;39.35;7.85;;;7.70;99.90;;;;;;5026546;28;20498;-76
2023/12/21 14:44:43;;;;;;;36.25;7.47;;;7.80;99.90;;;;;;5043598;28;20155;-76
2023/12/21 14:47:36;;;;;;;50.03;9.20;;;7.80;99.90;;;;;;5050743;28;20053;-74
2023/12/21 14:50:05;;;;;;;45.10;8.85;;;7.80;99.90;;;;;;5060505;22;20051;-75
2023/12/21 14:52:31;;;;;;;60.88;10.60;;;7.80;99.90;;;;;;5054237;28;20153;-75
2023/12/21 14:54:57;;;;;;;48.70;10.13;;;7.80;99.90;;;;;;5071145;28;20143;-75
2023/12/21 14:57:24;;;;;;;52.35;10.82;;;7.90;99.90;;;;;;5031882;23;20045;-74
2023/12/21 14:59:52;;;;;;;63.03;12.05;;;8.00;99.90;;;;;;5014446;28;20057;-74
2023/12/21 15:02:24;;;;;;;66.25;13.30;;;8.00;99.90;;;;;;4998679;28;20041;-74
2023/12/21 15:08:59;;;;;;;44.40;10.65;;;8.00;97.50;;;;;;5044831;23;20067;-73
2023/12/21 15:11:45;;;;;;;47.03;12.05;;;7.90;62.80;;;;;;5026089;28;20583;-73
2023/12/21 15:14:14;;;;;;;57.72;12.25;;;7.90;36.40;;;;;;5015066;28;20045;-73
2023/12/21 15:16:40;;;;;;;48.88;10.15;;;8.00;40.00;;;;;;5010742;28;20045;-73
2023/12/21 15:19:10;;;;;;;57.33;12.45;;;8.00;37.30;;;;;;4998306;28;20088;-73
2023/12/21 15:21:37;;;;;;;51.53;9.98;;;8.00;40.40;;;;;;5039672;23;20143;-73
2023/12/21 15:24:06;;;;;;;66.22;13.60;;;7.90;55.00;;;;;;5051707;28;20052;-73
2023/12/21 15:26:33;;;;;;;49.28;11.50;;;7.90;55.80;;;;;;5058903;28;20399;-72
2023/12/21 15:29:01;;;;;;;61.50;13.73;;;7.90;57.90;;;;;;5055363;28;20123;-72
2023/12/21 15:34:07;;;;;;;62.17;13.45;;;7.90;31.80;;;;;;5057712;22;20126;-72
2023/12/21 15:36:35;;;;;;;51.88;12.50;;;8.00;50.00;;;;;;5022175;28;20040;-72
2023/12/21 15:39:17;;;;;;;44.75;11.73;;;7.90;47.70;;;;;;5034208;28;20040;-72
2023/12/21 15:45:43;;;;;;;54.22;11.02;;;8.00;45.90;;;;;;5039339;22;20120;-72
2023/12/21 15:48:09;;;;;;;67.95;12.75;;;8.00;46.20;;;;;;5067061;28;20417;-72
2023/12/21 15:50:35;;;;;;;63.95;13.32;;;7.90;45.60;;;;;;5069883;28;20051;-73
2023/12/21 15:53:01;;;;;;;62.80;14.40;;;8.00;28.60;;;;;;5065469;28;20399;-72
2023/12/21 15:55:29;;;;;;;52.58;10.07;;;8.00;26.70;;;;;;5076735;28;20051;-72
2023/12/21 15:57:56;;;;;;;65.82;10.63;;;8.00;33.50;;;;;;5068035;28;20058;-72
2023/12/21 16:00:23;;;;;;;62.67;14.23;;;7.90;34.50;;;;;;5060271;28;20089;-71
2023/12/21 16:02:50;;;;;;;68.13;11.52;;;7.90;34.50;;;;;;5067564;28;20058;-71
2023/12/21 16:05:17;;;;;;;61.67;11.13;;;7.80;34.80;;;;;;5038163;28;20238;-72
2023/12/21 16:07:50;;;;;;;59.10;13.13;;;7.80;36.20;;;;;;5091435;28;20126;-72
2023/12/21 16:10:16;;;;;;;64.28;10.95;;;7.90;23.20;;;;;;5086101;28;20415;-72
2023/12/21 16:12:44;;;;;;;62.83;12.85;;;8.00;20.70;;;;;;5049126;28;20083;-71
2023/12/21 16:15:41;;;;;;;64.15;13.32;;;7.90;22.50;;;;;;5080177;28;20048;-72
2023/12/21 16:18:09;;;;;;;52.45;12.70;;;8.00;16.10;;;;;;5091950;28;20075;-71
2023/12/21 16:20:37;;;;;;;56.75;14.02;;;7.90;18.30;;;;;;5069886;28;20056;-69
2023/12/21 16:25:40;;;;;;;73.43;11.73;;;8.00;15.90;;;;;;5108328;22;20063;-70
2023/12/21 16:28:07;;;;;;;60.65;13.45;;;8.00;19.00;;;;;;5067329;28;20040;-71
2023/12/21 16:30:35;;;;;;;61.80;14.00;;;8.00;20.70;;;;;;5101433;28;20043;-70
2023/12/21 16:36:43;;;;;;;58.78;9.98;;;8.00;13.40;;;;;;5112595;22;20059;-70
2023/12/21 16:39:18;;;;;;;54.83;11.73;;;7.80;16.40;;;;;;5061258;28;20091;-70
2023/12/21 16:42:07;;;;;;;54.97;12.15;;;7.80;18.60;;;;;;5070618;28;20041;-70
2023/12/21 16:44:33;;;;;;;50.70;13.05;;;7.70;22.90;;;;;;5063995;28;20044;-71
2023/12/21 16:47:00;;;;;;;55.40;12.88;;;7.60;22.70;;;;;;5076468;28;20056;-69
2023/12/21 16:49:47;;;;;;;49.90;9.75;;;7.70;15.10;;;;;;5060440;28;20071;-70
2023/12/21 16:52:13;;;;;;;50.95;11.13;;;7.70;10.50;;;;;;5031486;28;20040;-69
2023/12/21 17:09:57;;;;;;;52.70;10.90;;;7.80;1.00;;;;;;5032039;26;20040;-69
2023/12/21 17:12:26;;;;;;;54.25;10.85;;;7.80;1.00;;;;;;5050972;28;20053;-69
2023/12/21 17:14:53;;;;;;;52.92;13.13;;;7.80;1.00;;;;;;5047580;28;20044;-69
2023/12/21 17:17:19;;;;;;;56.38;12.25;;;7.80;4.90;;;;;;5065103;28;20048;-69
2023/12/21 17:19:55;;;;;;;58.40;12.98;;;7.80;9.20;;;;;;5034474;28;20032;-69
2023/12/21 17:22:21;;;;;;;66.00;13.43;;;7.60;13.40;;;;;;5060352;28;20125;-69
2023/12/21 17:24:48;;;;;;;43.38;10.32;;;7.60;16.70;;;;;;5047870;28;20118;-69
2023/12/21 17:27:39;;;;;;;56.80;11.52;;;7.60;11.40;;;;;;5055150;28;20056;-69
2023/12/21 17:30:26;;;;;;;56.97;12.15;;;7.60;12.30;;;;;;5078447;28;20129;-69
2023/12/21 17:33:08;;;;;;;50.58;11.98;;;7.50;15.40;;;;;;5059715;28;20133;-69
2023/12/21 17:35:36;;;;;;;61.30;12.35;;;7.50;16.00;;;;;;5075803;28;20056;-68
2023/12/21 17:38:16;;;;;;;50.97;10.73;;;7.50;12.40;;;;;;5049771;28;20044;-68
2023/12/21 17:41:17;;;;;;;48.22;10.20;;;7.40;12.50;;;;;;5051812;28;20119;-68
2023/12/21 17:43:44;;;;;;;41.13;10.18;;;7.40;3.70;;;;;;5062332;28;20506;-69
2023/12/21 17:46:15;;;;;;;51.33;11.07;;;7.40;5.00;;;;;;5047150;28;20052;-69
2023/12/21 17:48:41;;;;;;;55.28;10.98;;;7.50;3.30;;;;;;5050474;28;20056;-68
2023/12/21 17:51:09;;;;;;;54.15;10.90;;;7.50;5.00;;;;;;5048292;28;20066;-69
2023/12/21 17:53:36;;;;;;;53.78;11.68;;;7.50;4.10;;;;;;5056803;28;20395;-69
2023/12/21 17:58:41;;;;;;;25.98;4.47;;;6.30;61.50;;;;;;5091199;22;20055;-69
2023/12/21 18:01:08;;;;;;;32.95;6.93;;;5.60;83.50;;;;;;5066188;28;20097;-69
2023/12/21 18:03:36;;;;;;;35.88;6.90;;;5.40;89.70;;;;;;5062778;28;20055;-67
2023/12/21 18:06:42;;;;;;;33.95;7.30;;;5.50;68.00;;;;;;5033256;28;20128;-69
2023/12/21 18:17:54;;;;;;;53.72;11.13;;;6.20;47.80;;;;;;3779096;23;20045;-68
2023/12/21 18:20:34;;;;;;;51.97;12.10;;;6.40;50.00;;;;;;5037889;28;20055;-69
2023/12/21 18:23:17;;;;;;;61.75;13.13;;;6.50;56.80;;;;;;5052495;28;20075;-68
2023/12/21 18:25:45;;;;;;;65.97;12.57;;;6.60;54.80;;;;;;5033178;28;20559;-69
2023/12/21 18:31:57;;;;;;;65.20;14.18;;;6.90;47.30;;;;;;4984394;28;20049;-68
2023/12/21 18:34:27;;;;;;;63.03;13.15;;;6.90;42.10;;;;;;4993910;28;20813;-68
2023/12/21 18:36:53;;;;;;;56.58;14.02;;;7.00;36.90;;;;;;5046145;28;20106;-69
2023/12/21 18:39:38;;;;;;;74.93;12.70;;;7.00;40.30;;;;;;5030264;28;20437;-70
2023/12/21 18:42:05;;;;;;;70.53;13.50;;;6.90;46.00;;;;;;5024605;28;20094;-71
2023/12/21 18:44:31;;;;;;;75.65;14.85;;;6.90;46.50;;;;;;5047024;28;20053;-71
2023/12/21 18:47:50;;;;;;;71.28;13.95;;;6.90;48.20;;;;;;5032578;28;20083;-71
2023/12/21 18:50:16;;;;;;;61.53;12.02;;;6.90;46.60;;;;;;5047926;23;20064;-71
2023/12/21 18:52:44;;;;;;;64.70;13.05;;;7.00;41.50;;;;;;5046207;28;20421;-71
2023/12/21 18:55:16;;;;;;;61.08;13.50;;;7.10;39.10;;;;;;5046493;28;20062;-70
2023/12/21 18:57:42;;;;;;;47.13;9.85;;;7.10;33.70;;;;;;5033367;28;20044;-71
2023/12/21 19:00:53;;;;;;;54.28;11.52;;;7.20;33.20;;;;;;5031788;28;20051;-70
2023/12/21 19:04:11;;;;;;;58.63;12.30;;;7.20;34.30;;;;;;5071654;28;20178;-70
2023/12/21 19:07:23;;;;;;;57.15;9.98;;;7.10;41.80;;;;;;5076935;22;20064;-70
2023/12/21 19:10:01;;;;;;;63.20;11.27;;;7.10;45.20;;;;;;5060314;23;20172;-70
2023/12/21 19:12:47;;;;;;;71.95;14.25;;;7.10;44.10;;;;;;5028065;28;20111;-70
2023/12/21 19:18:05;;;;;;;46.28;9.45;;;6.90;86.80;;;;;;4379085;26;20056;-68
2023/12/21 19:20:35;;;;;;;38.30;6.70;;;6.40;99.90;;;;;;5045648;28;20114;-68
2023/12/21 19:27:34;;;;;;;44.85;8.48;;;5.50;99.90;;;;;;5051525;28;20403;-68
2023/12/21 19:30:02;;;;;;;49.40;7.80;;;5.30;99.90;;;;;;5061968;28;20059;-68
2023/12/21 19:32:49;;;;;;;48.60;12.30;;;5.30;99.90;;;;;;5046581;28;20131;-68
2023/12/21 19:35:19;;;;;;;62.85;11.07;;;5.30;99.90;;;;;;5037541;28;20041;-69
2023/12/21 19:45:06;;;;;;;45.72;6.15;;;5.70;99.90;;;;;;5069118;28;19914;-69
2023/12/21 19:50:13;;;;;;;70.07;8.70;;;5.60;99.90;;;;;;1398962;26;19931;-69
2023/12/21 19:52:39;;;;;;;60.38;9.18;;;5.40;99.90;;;;;;5053106;23;20424;-69
2023/12/21 19:55:06;;;;;;;55.47;10.40;;;5.30;99.90;;;;;;5062538;28;20064;-69
2023/12/21 19:57:32;;;;;;;56.03;9.43;;;5.40;99.90;;;;;;5045289;28;20167;-70
2023/12/21 19:59:57;;;;;;;49.58;9.77;;;5.50;99.90;;;;;;5028783;28;20119;-69
2023/12/21 20:02:23;;;;;;;51.55;8.45;;;5.50;99.90;;;;;;5046899;28;20446;-69
2023/12/21 20:04:50;;;;;;;60.85;11.23;;;5.50;99.90;;;;;;5039301;28;20055;-69
2023/12/21 20:07:17;;;;;;;60.05;10.90;;;5.60;99.90;;;;;;5046618;28;20429;-69
2023/12/21 20:09:52;;;;;;;69.63;11.85;;;5.70;99.90;;;;;;5022435;28;20052;-69
2023/12/21 20:12:55;;;;;;;71.82;13.15;;;5.80;99.90;;;;;;5050050;28;20044;-68
2023/12/21 20:19:34;;;;;;;53.55;9.18;;;6.10;99.90;;;;;;5030926;23;20126;-71
2023/12/21 20:22:31;;;;;;;53.95;7.72;;;5.90;99.90;;;;;;5049835;28;20056;-72
2023/12/21 20:25:51;;;;;;;61.13;9.10;;;5.70;99.90;;;;;;5025558;28;20071;-71
2023/12/21 20:38:58;;;;;;;77.57;12.02;;;5.70;99.90;;;;;;5003559;28;20057;-72
2023/12/21 20:41:24;;;;;;;69.70;10.13;;;5.80;99.90;;;;;;5017023;23;20140;-71
2023/12/21 20:43:50;;;;;;;61.75;10.13;;;5.80;99.90;;;;;;5008409;28;20877;-72
2023/12/21 20:46:17;;;;;;;66.53;10.38;;;5.80;99.90;;;;;;4996803;28;20053;-72
2023/12/21 20:48:42;;;;;;;62.05;10.35;;;5.80;99.90;;;;;;5022388;28;20038;-72
2023/12/21 20:54:48;;;;;;;76.20;12.68;;;5.90;99.90;;;;;;5007214;28;20064;-71
2023/12/21 20:57:19;;;;;;;58.97;11.70;;;5.90;99.90;;;;;;4994878;28;20087;-71
2023/12/21 20:59:47;;;;;;;17.83;4.28;;;6.00;99.90;;;;;;5018142;28;20045;-72
2023/12/21 21:06:05;;;;;;;27.70;5.90;;;5.60;65.00;;;;;;5030532;28;20055;-71
2023/12/21 21:08:32;;;;;;;34.10;7.82;;;5.70;62.00;;;;;;5022313;28;20049;-72
2023/12/21 21:11:19;;;;;;;34.50;7.95;;;5.70;63.70;;;;;;4996675;28;20044;-71
2023/12/21 21:14:37;;;;;;;50.47;9.63;;;5.90;59.70;;;;;;4992056;28;20330;-71
2023/12/21 21:18:21;;;;;;;40.38;8.25;;;6.00;64.60;;;;;;5038364;23;20499;-71
2023/12/21 21:22:22;;;;;;;41.45;8.82;;;6.00;66.10;;;;;;5065695;23;20060;-71
2023/12/21 21:24:49;;;;;;;44.90;10.18;;;6.10;64.90;;;;;;5054335;28;20048;-71
2023/12/21 21:27:15;;;;;;;26.67;5.72;;;6.20;66.20;;;;;;5047639;28;20070;-71
2023/12/21 21:29:42;;;;;;;17.08;4.25;;;6.30;62.40;;;;;;5061333;28;20070;-71
2023/12/21 21:32:08;;;;;;;27.00;5.07;;;6.00;77.60;;;;;;5057658;28;20040;-71
2023/12/21 21:34:38;;;;;;;25.92;5.82;;;5.80;95.60;;;;;;5056559;28;20136;-71
2023/12/21 21:37:04;;;;;;;25.10;4.70;;;5.70;99.90;;;;;;5057771;28;20109;-71
2023/12/21 21:39:32;;;;;;;36.78;6.57;;;5.70;99.90;;;;;;5061067;28;20037;-71
2023/12/21 21:41:58;;;;;;;42.10;9.73;;;5.70;99.90;;;;;;5061358;28;20395;-71
2023/12/21 21:44:44;;;;;;;36.67;7.35;;;5.70;99.90;;;;;;5062540;28;20098;-71
2023/12/21 21:48:04;;;;;;;37.10;8.27;;;5.80;99.90;;;;;;5027859;28;20053;-71
2023/12/21 21:50:30;;;;;;;28.00;6.53;;;5.90;97.80;;;;;;5023722;23;20056;-71
2023/12/21 21:53:16;;;;;;;28.85;6.70;;;6.00;84.90;;;;;;5032156;28;20109;-71
2023/12/21 21:56:43;;;;;;;22.35;5.38;;;6.00;65.10;;;;;;5035852;28;20084;-71
2023/12/21 22:00:21;;;;;;;34.22;6.85;;;6.00;57.40;;;;;;4987918;28;20141;-70
2023/12/21 22:06:16;;;;;;;36.25;8.25;;;6.00;64.70;;;;;;4838459;26;20522;-70
2023/12/21 22:11:47;;;;;;;;;;;6.00;79.90;;;;;;5069617;23;20144;-70
2023/12/21 22:14:14;;;;;;;46.63;9.57;;;6.10;78.30;;;;;;5007146;28;20020;-70
2023/12/21 22:16:40;;;;;;;23.98;6.10;;;6.20;58.80;;;;;;5010919;28;20056;-70
2023/12/21 22:19:05;;;;;;;23.45;3.78;;;6.30;91.50;;;;;;5010002;28;20694;-71
2023/12/21 22:21:34;;;;;;;58.83;11.90;;;5.80;99.90;;;;;;5028335;28;20053;-70
2023/12/21 22:24:00;;;;;;;57.95;14.40;;;5.50;99.90;;;;;;5010155;28;21500;-71
2023/12/21 22:26:26;;;;;;;60.53;10.90;;;5.40;99.90;;;;;;5012183;28;20056;-71
2023/12/21 22:28:52;;;;;;;48.05;9.32;;;5.30;99.90;;;;;;5008944;28;20048;-71
2023/12/21 22:31:18;;;;;;;39.10;8.18;;;5.30;99.90;;;;;;5007140;28;20049;-71
2023/12/21 22:33:44;;;;;;;43.03;8.90;;;5.30;99.90;;;;;;4993767;28;20056;-71
2023/12/21 22:36:11;;;;;;;40.17;7.07;;;5.40;99.90;;;;;;5026486;28;20063;-71
2023/12/21 22:38:37;;;;;;;46.53;8.27;;;5.50;99.90;;;;;;5027211;28;20403;-71
2023/12/21 22:41:07;;;;;;;43.20;9.13;;;5.60;98.10;;;;;;5033757;28;20048;-70
2023/12/21 22:43:32;;;;;;;43.60;9.00;;;5.70;93.70;;;;;;5011458;28;20083;-70
2023/12/21 22:45:58;;;;;;;46.28;10.05;;;5.90;97.40;;;;;;5009180;28;20051;-70
2023/12/21 22:48:33;;;;;;;33.15;7.15;;;5.80;99.90;;;;;;5026914;28;20110;-71
2023/12/21 22:50:59;;;;;;;26.80;6.57;;;5.50;99.90;;;;;;5009713;28;20560;-71
2023/12/21 22:53:24;;;;;;;32.97;6.85;;;5.40;99.90;;;;;;5026876;28;20049;-70
2023/12/21 22:55:50;;;;;;;27.45;6.50;;;5.30;99.90;;;;;;4994510;28;20392;-71
2023/12/21 22:58:16;;;;;;;37.47;9.00;;;5.30;99.90;;;;;;5009806;28;20048;-70
2023/12/21 23:00:42;;;;;;;35.15;8.48;;;5.30;99.90;;;;;;4993353;28;20466;-71
2023/12/21 23:03:07;;;;;;;47.35;8.77;;;5.40;99.90;;;;;;5026108;28;20053;-71
2023/12/21 23:05:34;;;;;;;38.97;8.40;;;5.40;99.90;;;;;;5041004;28;20057;-71
2023/12/21 23:08:00;;;;;;;42.38;7.80;;;5.50;98.90;;;;;;5008022;28;20094;-70
2023/12/21 23:10:26;;;;;;;43.05;10.10;;;5.50;95.40;;;;;;5009017;28;20041;-70
2023/12/21 23:12:51;;;;;;;40.33;8.63;;;5.70;93.90;;;;;;5026196;28;20061;-70
2023/12/21 23:15:17;;;;;;;39.38;8.98;;;5.80;93.00;;;;;;5006728;28;20059;-71
2023/12/21 23:17:43;;;;;;;43.28;8.45;;;5.90;94.30;;;;;;5027120;28;20040;-70
2023/12/21 23:20:09;;;;;;;52.70;8.02;;;5.90;94.60;;;;;;5008344;28;20127;-71
2023/12/21 23:22:34;;;;;;;47.83;9.93;;;6.00;93.80;;;;;;5010743;28;20450;-70
2023/12/21 23:25:01;;;;;;;44.03;8.85;;;6.00;93.90;;;;;;5024820;28;20052;-70
2023/12/21 23:27:26;;;;;;;37.38;8.25;;;6.10;94.30;;;;;;5027150;28;20159;-70
2023/12/21 23:29:56;;;;;;;37.33;9.13;;;6.00;90.00;;;;;;5014753;28;20110;-70
2023/12/21 23:32:23;;;;;;;42.65;9.85;;;6.10;81.80;;;;;;5013611;28;20052;-70
2023/12/21 23:34:48;;;;;;;51.20;10.30;;;6.10;73.80;;;;;;5023765;28;20060;-70
2023/12/21 23:37:14;;;;;;;54.30;9.57;;;6.20;75.70;;;;;;5014421;28;20045;-70
2023/12/21 23:39:40;;;;;;;56.40;11.10;;;6.20;76.00;;;;;;5026961;28;20060;-70
2023/12/21 23:42:05;;;;;;;44.65;9.82;;;6.20;86.90;;;;;;5032568;28;20796;-70
2023/12/21 23:44:31;;;;;;;55.00;11.00;;;6.10;80.70;;;;;;5029346;28;20088;-70
2023/12/21 23:46:57;;;;;;;48.72;9.38;;;6.10;82.60;;;;;;5003531;28;20063;-71
2023/12/21 23:49:22;;;;;;;52.83;9.02;;;6.00;86.40;;;;;;5012563;28;20048;-70
2023/12/21 23:51:54;;;;;;;51.00;10.73;;;6.00;84.60;;;;;;5014697;28;20138;-70
2023/12/21 23:54:20;;;;;;;47.92;9.48;;;6.00;88.20;;;;;;5009888;28;20045;-70
2023/12/21 23:56:46;;;;;;;40.42;7.97;;;6.00;89.50;;;;;;5013585;28;20045;-70
2023/12/21 23:59:11;;;;;;;42.22;8.88;;;6.00;90.30;;;;;;5027612;28;20045;-70
